sensor_id;sensor_type;location;lat;lon;timestamp;P1;durP1;ratioP1;P2;durP2;ratioP2
21681;SDS011;11002;48.256;10.084;2023-03-19T00:00:15;11.20;;;6.72;;
21681;SDS011;11002;48.256;10.084;2023-03-19T00:02:43;10.02;;;6.65;;
21681;SDS011;11002;48.256;10.084;2023-03-19T00:05:14;9.95;;;6.25;;
21681;SDS011;11002;48.256;10.084;2023-03-19T00:07:42;13.20;;;7.00;;
21681;SDS011;11002;48.256;10.084;2023-03-19T00:10:10;13.57;;;7.63;;
21681;SDS011;11002;48.256;10.084;2023-03-19T00:12:37;14.93;;;8.95;;
21681;SDS011;11002;48.256;10.084;2023-03-19T00:15:07;15.93;;;9.45;;
21681;SDS011;11002;48.256;10.084;2023-03-19T00:17:38;19.15;;;10.35;;
21681;SDS011;11002;48.256;10.084;2023-03-19T00:20:08;14.27;;;9.32;;
21681;SDS011;11002;48.256;10.084;2023-03-19T00:22:36;17.75;;;9.80;;
21681;SDS011;11002;48.256;10.084;2023-03-19T00:25:04;17.73;;;10.38;;
21681;SDS011;11002;48.256;10.084;2023-03-19T00:27:32;17.58;;;9.82;;
21681;SDS011;11002;48.256;10.084;2023-03-19T00:30:00;20.58;;;10.10;;
21681;SDS011;11002;48.256;10.084;2023-03-19T00:32:30;15.30;;;9.63;;
21681;SDS011;11002;48.256;10.084;2023-03-19T00:34:58;15.88;;;9.88;;
21681;SDS011;11002;48.256;10.084;2023-03-19T00:37:26;20.08;;;9.40;;
21681;SDS011;11002;48.256;10.084;2023-03-19T00:39:54;18.75;;;10.70;;
21681;SDS011;11002;48.256;10.084;2023-03-19T00:42:21;13.15;;;9.18;;
21681;SDS011;11002;48.256;10.084;2023-03-19T00:44:49;18.38;;;9.40;;
21681;SDS011;11002;48.256;10.084;2023-03-19T00:47:16;16.33;;;8.68;;
21681;SDS011;11002;48.256;10.084;2023-03-19T00:49:45;11.65;;;7.57;;
21681;SDS011;11002;48.256;10.084;2023-03-19T00:52:13;12.07;;;8.32;;
21681;SDS011;11002;48.256;10.084;2023-03-19T00:54:40;14.98;;;7.55;;
21681;SDS011;11002;48.256;10.084;2023-03-19T00:57:08;13.95;;;7.55;;
21681;SDS011;11002;48.256;10.084;2023-03-19T00:59:35;13.45;;;7.63;;
21681;SDS011;11002;48.256;10.084;2023-03-19T01:02:03;10.05;;;6.65;;
21681;SDS011;11002;48.256;10.084;2023-03-19T01:04:30;11.52;;;7.70;;
21681;SDS011;11002;48.256;10.084;2023-03-19T01:06:59;16.17;;;8.25;;
21681;SDS011;11002;48.256;10.084;2023-03-19T01:09:27;14.55;;;8.23;;
21681;SDS011;11002;48.256;10.084;2023-03-19T01:11:54;20.85;;;9.07;;
21681;SDS011;11002;48.256;10.084;2023-03-19T01:14:21;17.77;;;7.80;;
21681;SDS011;11002;48.256;10.084;2023-03-19T01:16:49;12.68;;;6.97;;
21681;SDS011;11002;48.256;10.084;2023-03-19T01:19:16;14.35;;;7.43;;
21681;SDS011;11002;48.256;10.084;2023-03-19T01:21:44;12.05;;;7.18;;
21681;SDS011;11002;48.256;10.084;2023-03-19T01:24:19;12.45;;;6.60;;
21681;SDS011;11002;48.256;10.084;2023-03-19T01:26:51;13.68;;;6.70;;
21681;SDS011;11002;48.256;10.084;2023-03-19T01:29:27;10.82;;;6.32;;
21681;SDS011;11002;48.256;10.084;2023-03-19T01:31:58;10.15;;;5.90;;
21681;SDS011;11002;48.256;10.084;2023-03-19T01:34:43;9.50;;;6.07;;
21681;SDS011;11002;48.256;10.084;2023-03-19T01:37:14;8.43;;;5.72;;
21681;SDS011;11002;48.256;10.084;2023-03-19T01:39:44;10.38;;;5.82;;
21681;SDS011;11002;48.256;10.084;2023-03-19T01:42:13;6.90;;;5.47;;
21681;SDS011;11002;48.256;10.084;2023-03-19T01:45:01;9.75;;;5.57;;
21681;SDS011;11002;48.256;10.084;2023-03-19T01:47:42;10.23;;;5.85;;
21681;SDS011;11002;48.256;10.084;2023-03-19T01:52:56;9.88;;;5.90;;
21681;SDS011;11002;48.256;10.084;2023-03-19T01:55:45;10.75;;;6.20;;
21681;SDS011;11002;48.256;10.084;2023-03-19T01:58:39;11.50;;;5.95;;
21681;SDS011;11002;48.256;10.084;2023-03-19T02:01:20;9.45;;;5.35;;
21681;SDS011;11002;48.256;10.084;2023-03-19T02:03:50;10.25;;;6.18;;
21681;SDS011;11002;48.256;10.084;2023-03-19T02:06:24;14.33;;;6.47;;
21681;SDS011;11002;48.256;10.084;2023-03-19T02:08:53;8.50;;;6.53;;
21681;SDS011;11002;48.256;10.084;2023-03-19T02:11:24;8.98;;;5.18;;
21681;SDS011;11002;48.256;10.084;2023-03-19T02:13:52;12.27;;;6.45;;
21681;SDS011;11002;48.256;10.084;2023-03-19T02:16:20;10.40;;;6.43;;
21681;SDS011;11002;48.256;10.084;2023-03-19T02:18:48;9.02;;;6.43;;
21681;SDS011;11002;48.256;10.084;2023-03-19T02:21:16;11.35;;;6.35;;
21681;SDS011;11002;48.256;10.084;2023-03-19T02:23:48;10.68;;;5.95;;
21681;SDS011;11002;48.256;10.084;2023-03-19T02:26:36;10.93;;;5.78;;
21681;SDS011;11002;48.256;10.084;2023-03-19T02:29:05;10.40;;;5.75;;
21681;SDS011;11002;48.256;10.084;2023-03-19T02:31:34;12.35;;;6.13;;
21681;SDS011;11002;48.256;10.084;2023-03-19T02:34:04;14.50;;;6.10;;
21681;SDS011;11002;48.256;10.084;2023-03-19T02:36:34;10.60;;;5.85;;
21681;SDS011;11002;48.256;10.084;2023-03-19T02:41:40;12.38;;;5.75;;
21681;SDS011;11002;48.256;10.084;2023-03-19T02:44:08;9.45;;;6.20;;
21681;SDS011;11002;48.256;10.084;2023-03-19T02:46:37;9.18;;;5.78;;
21681;SDS011;11002;48.256;10.084;2023-03-19T02:49:05;13.23;;;5.95;;
21681;SDS011;11002;48.256;10.084;2023-03-19T02:51:32;8.35;;;6.15;;
21681;SDS011;11002;48.256;10.084;2023-03-19T02:54:00;8.48;;;5.93;;
21681;SDS011;11002;48.256;10.084;2023-03-19T02:56:27;9.43;;;5.78;;
21681;SDS011;11002;48.256;10.084;2023-03-19T02:58:57;13.80;;;7.40;;
21681;SDS011;11002;48.256;10.084;2023-03-19T03:01:24;10.43;;;6.10;;
21681;SDS011;11002;48.256;10.084;2023-03-19T03:03:52;8.45;;;5.85;;
21681;SDS011;11002;48.256;10.084;2023-03-19T03:06:19;9.00;;;6.15;;
21681;SDS011;11002;48.256;10.084;2023-03-19T03:08:46;9.55;;;5.80;;
21681;SDS011;11002;48.256;10.084;2023-03-19T03:11:14;11.02;;;6.40;;
21681;SDS011;11002;48.256;10.084;2023-03-19T03:13:41;8.68;;;5.70;;
21681;SDS011;11002;48.256;10.084;2023-03-19T03:16:10;8.43;;;5.75;;
21681;SDS011;11002;48.256;10.084;2023-03-19T03:18:38;8.13;;;5.70;;
21681;SDS011;11002;48.256;10.084;2023-03-19T03:21:05;9.38;;;6.10;;
21681;SDS011;11002;48.256;10.084;2023-03-19T03:23:34;11.25;;;5.82;;
21681;SDS011;11002;48.256;10.084;2023-03-19T03:26:02;9.48;;;5.50;;
21681;SDS011;11002;48.256;10.084;2023-03-19T03:28:31;9.10;;;5.28;;
21681;SDS011;11002;48.256;10.084;2023-03-19T03:30:59;5.90;;;4.78;;
21681;SDS011;11002;48.256;10.084;2023-03-19T03:33:28;6.88;;;4.63;;
21681;SDS011;11002;48.256;10.084;2023-03-19T03:35:56;5.90;;;4.07;;
21681;SDS011;11002;48.256;10.084;2023-03-19T03:38:23;6.75;;;3.63;;
21681;SDS011;11002;48.256;10.084;2023-03-19T03:40:51;7.50;;;3.67;;
21681;SDS011;11002;48.256;10.084;2023-03-19T03:43:23;6.43;;;3.88;;
21681;SDS011;11002;48.256;10.084;2023-03-19T03:45:51;6.63;;;3.55;;
21681;SDS011;11002;48.256;10.084;2023-03-19T03:48:19;5.85;;;3.47;;
21681;SDS011;11002;48.256;10.084;2023-03-19T03:50:49;5.65;;;3.47;;
21681;SDS011;11002;48.256;10.084;2023-03-19T03:53:24;4.80;;;2.90;;
21681;SDS011;11002;48.256;10.084;2023-03-19T03:55:52;8.55;;;2.75;;
21681;SDS011;11002;48.256;10.084;2023-03-19T03:58:23;5.25;;;2.85;;
21681;SDS011;11002;48.256;10.084;2023-03-19T04:00:50;4.85;;;3.10;;
21681;SDS011;11002;48.256;10.084;2023-03-19T04:03:20;4.43;;;2.85;;
21681;SDS011;11002;48.256;10.084;2023-03-19T04:05:50;4.05;;;2.65;;
21681;SDS011;11002;48.256;10.084;2023-03-19T04:08:19;3.78;;;2.28;;
21681;SDS011;11002;48.256;10.084;2023-03-19T04:10:47;5.47;;;2.50;;
21681;SDS011;11002;48.256;10.084;2023-03-19T04:13:15;3.92;;;2.40;;
21681;SDS011;11002;48.256;10.084;2023-03-19T04:15:42;4.18;;;2.47;;
21681;SDS011;11002;48.256;10.084;2023-03-19T04:18:12;4.65;;;2.65;;
21681;SDS011;11002;48.256;10.084;2023-03-19T04:20:40;3.80;;;2.33;;
21681;SDS011;11002;48.256;10.084;2023-03-19T04:23:09;6.70;;;2.97;;
21681;SDS011;11002;48.256;10.084;2023-03-19T04:25:37;4.65;;;2.80;;
21681;SDS011;11002;48.256;10.084;2023-03-19T04:28:05;7.05;;;2.65;;
21681;SDS011;11002;48.256;10.084;2023-03-19T04:30:33;4.82;;;2.83;;
21681;SDS011;11002;48.256;10.084;2023-03-19T04:33:01;6.65;;;3.25;;
21681;SDS011;11002;48.256;10.084;2023-03-19T04:35:29;9.15;;;3.40;;
21681;SDS011;11002;48.256;10.084;2023-03-19T04:37:57;6.88;;;3.58;;
21681;SDS011;11002;48.256;10.084;2023-03-19T04:40:26;4.95;;;3.60;;
21681;SDS011;11002;48.256;10.084;2023-03-19T04:42:54;5.68;;;3.33;;
21681;SDS011;11002;48.256;10.084;2023-03-19T04:45:29;5.80;;;3.42;;
21681;SDS011;11002;48.256;10.084;2023-03-19T04:47:58;7.38;;;3.50;;
21681;SDS011;11002;48.256;10.084;2023-03-19T04:50:26;5.72;;;3.97;;
21681;SDS011;11002;48.256;10.084;2023-03-19T04:52:54;7.70;;;4.60;;
21681;SDS011;11002;48.256;10.084;2023-03-19T04:55:23;6.00;;;4.18;;
21681;SDS011;11002;48.256;10.084;2023-03-19T04:58:03;8.80;;;4.15;;
21681;SDS011;11002;48.256;10.084;2023-03-19T05:00:33;6.55;;;4.05;;
21681;SDS011;11002;48.256;10.084;2023-03-19T05:03:00;7.97;;;4.00;;
21681;SDS011;11002;48.256;10.084;2023-03-19T05:05:30;7.15;;;4.50;;
21681;SDS011;11002;48.256;10.084;2023-03-19T05:08:03;7.38;;;4.60;;
21681;SDS011;11002;48.256;10.084;2023-03-19T05:10:34;7.30;;;4.72;;
21681;SDS011;11002;48.256;10.084;2023-03-19T05:13:04;8.80;;;5.25;;
21681;SDS011;11002;48.256;10.084;2023-03-19T05:15:36;11.35;;;5.10;;
21681;SDS011;11002;48.256;10.084;2023-03-19T05:18:05;6.30;;;4.68;;
21681;SDS011;11002;48.256;10.084;2023-03-19T05:20:38;6.95;;;4.80;;
21681;SDS011;11002;48.256;10.084;2023-03-19T05:23:14;7.00;;;4.47;;
21681;SDS011;11002;48.256;10.084;2023-03-19T05:25:51;4.97;;;4.25;;
21681;SDS011;11002;48.256;10.084;2023-03-19T05:28:33;7.10;;;4.55;;
21681;SDS011;11002;48.256;10.084;2023-03-19T05:31:02;7.10;;;4.18;;
21681;SDS011;11002;48.256;10.084;2023-03-19T05:33:42;6.10;;;4.40;;
21681;SDS011;11002;48.256;10.084;2023-03-19T05:36:10;7.47;;;4.55;;
21681;SDS011;11002;48.256;10.084;2023-03-19T05:38:50;5.80;;;4.45;;
21681;SDS011;11002;48.256;10.084;2023-03-19T05:41:24;6.97;;;4.43;;
21681;SDS011;11002;48.256;10.084;2023-03-19T05:44:02;5.22;;;4.43;;
21681;SDS011;11002;48.256;10.084;2023-03-19T05:46:42;6.25;;;4.32;;
21681;SDS011;11002;48.256;10.084;2023-03-19T05:49:10;6.20;;;4.55;;
21681;SDS011;11002;48.256;10.084;2023-03-19T05:51:37;7.03;;;4.38;;
21681;SDS011;11002;48.256;10.084;2023-03-19T05:54:06;7.20;;;4.55;;
21681;SDS011;11002;48.256;10.084;2023-03-19T05:57:12;7.65;;;4.57;;
21681;SDS011;11002;48.256;10.084;2023-03-19T05:59:50;6.57;;;4.55;;
21681;SDS011;11002;48.256;10.084;2023-03-19T06:02:32;6.65;;;4.22;;
21681;SDS011;11002;48.256;10.084;2023-03-19T06:05:18;7.38;;;4.03;;
21681;SDS011;11002;48.256;10.084;2023-03-19T06:07:46;7.18;;;4.00;;
21681;SDS011;11002;48.256;10.084;2023-03-19T06:10:21;8.02;;;4.25;;
21681;SDS011;11002;48.256;10.084;2023-03-19T06:12:53;6.53;;;4.30;;
21681;SDS011;11002;48.256;10.084;2023-03-19T06:15:48;11.30;;;8.27;;
21681;SDS011;11002;48.256;10.084;2023-03-19T06:18:27;13.55;;;8.13;;
21681;SDS011;11002;48.256;10.084;2023-03-19T06:20:55;6.45;;;5.32;;
21681;SDS011;11002;48.256;10.084;2023-03-19T06:23:22;6.63;;;5.47;;
21681;SDS011;11002;48.256;10.084;2023-03-19T06:25:51;6.60;;;3.95;;
21681;SDS011;11002;48.256;10.084;2023-03-19T06:28:20;6.03;;;3.83;;
21681;SDS011;11002;48.256;10.084;2023-03-19T06:30:49;4.57;;;3.45;;
21681;SDS011;11002;48.256;10.084;2023-03-19T06:33:39;8.07;;;3.95;;
21681;SDS011;11002;48.256;10.084;2023-03-19T06:36:08;4.80;;;3.83;;
21681;SDS011;11002;48.256;10.084;2023-03-19T06:38:35;3.95;;;3.22;;
21681;SDS011;11002;48.256;10.084;2023-03-19T06:41:03;5.82;;;3.63;;
21681;SDS011;11002;48.256;10.084;2023-03-19T06:43:30;5.07;;;3.13;;
21681;SDS011;11002;48.256;10.084;2023-03-19T06:46:02;8.02;;;3.65;;
21681;SDS011;11002;48.256;10.084;2023-03-19T06:48:31;7.22;;;3.83;;
21681;SDS011;11002;48.256;10.084;2023-03-19T06:50:58;4.05;;;3.05;;
21681;SDS011;11002;48.256;10.084;2023-03-19T06:53:26;4.53;;;3.72;;
21681;SDS011;11002;48.256;10.084;2023-03-19T06:55:54;6.10;;;4.00;;
21681;SDS011;11002;48.256;10.084;2023-03-19T06:58:21;6.38;;;4.10;;
21681;SDS011;11002;48.256;10.084;2023-03-19T07:00:48;8.07;;;5.05;;
21681;SDS011;11002;48.256;10.084;2023-03-19T07:03:17;6.57;;;4.95;;
21681;SDS011;11002;48.256;10.084;2023-03-19T07:05:46;7.40;;;5.28;;
21681;SDS011;11002;48.256;10.084;2023-03-19T07:08:14;8.05;;;5.38;;
21681;SDS011;11002;48.256;10.084;2023-03-19T07:10:41;6.93;;;4.10;;
21681;SDS011;11002;48.256;10.084;2023-03-19T07:13:09;4.80;;;3.65;;
21681;SDS011;11002;48.256;10.084;2023-03-19T07:15:36;4.25;;;3.42;;
21681;SDS011;11002;48.256;10.084;2023-03-19T07:18:03;5.45;;;3.72;;
21681;SDS011;11002;48.256;10.084;2023-03-19T07:20:33;3.70;;;3.05;;
21681;SDS011;11002;48.256;10.084;2023-03-19T07:23:01;5.50;;;3.15;;
21681;SDS011;11002;48.256;10.084;2023-03-19T07:25:28;4.05;;;2.70;;
21681;SDS011;11002;48.256;10.084;2023-03-19T07:27:56;7.20;;;3.33;;
21681;SDS011;11002;48.256;10.084;2023-03-19T07:30:23;4.60;;;3.33;;
21681;SDS011;11002;48.256;10.084;2023-03-19T07:32:50;5.97;;;2.95;;
21681;SDS011;11002;48.256;10.084;2023-03-19T07:35:18;3.45;;;2.90;;
21681;SDS011;11002;48.256;10.084;2023-03-19T07:37:47;5.50;;;2.80;;
21681;SDS011;11002;48.256;10.084;2023-03-19T07:40:14;4.13;;;2.70;;
21681;SDS011;11002;48.256;10.084;2023-03-19T07:42:42;4.05;;;2.50;;
21681;SDS011;11002;48.256;10.084;2023-03-19T07:45:09;3.60;;;2.85;;
21681;SDS011;11002;48.256;10.084;2023-03-19T07:47:37;3.47;;;2.80;;
21681;SDS011;11002;48.256;10.084;2023-03-19T07:50:05;4.72;;;2.90;;
21681;SDS011;11002;48.256;10.084;2023-03-19T07:52:33;4.38;;;2.67;;
21681;SDS011;11002;48.256;10.084;2023-03-19T07:55:02;4.15;;;2.53;;
21681;SDS011;11002;48.256;10.084;2023-03-19T07:57:31;6.60;;;2.60;;
21681;SDS011;11002;48.256;10.084;2023-03-19T07:59:58;4.45;;;2.83;;
21681;SDS011;11002;48.256;10.084;2023-03-19T08:02:25;4.63;;;2.70;;
21681;SDS011;11002;48.256;10.084;2023-03-19T08:04:53;3.17;;;2.30;;
21681;SDS011;11002;48.256;10.084;2023-03-19T08:12:44;5.15;;;2.40;;
21681;SDS011;11002;48.256;10.084;2023-03-19T08:15:11;3.10;;;2.15;;
21681;SDS011;11002;48.256;10.084;2023-03-19T08:17:38;4.40;;;2.50;;
21681;SDS011;11002;48.256;10.084;2023-03-19T08:20:07;6.95;;;2.40;;
21681;SDS011;11002;48.256;10.084;2023-03-19T08:22:36;2.75;;;2.25;;
21681;SDS011;11002;48.256;10.084;2023-03-19T08:25:04;3.15;;;2.10;;
21681;SDS011;11002;48.256;10.084;2023-03-19T08:27:34;2.65;;;2.05;;
21681;SDS011;11002;48.256;10.084;2023-03-19T08:30:02;3.00;;;2.13;;
21681;SDS011;11002;48.256;10.084;2023-03-19T08:32:31;5.65;;;2.40;;
21681;SDS011;11002;48.256;10.084;2023-03-19T08:34:59;2.75;;;1.85;;
21681;SDS011;11002;48.256;10.084;2023-03-19T08:37:26;5.32;;;2.22;;
21681;SDS011;11002;48.256;10.084;2023-03-19T08:39:54;3.00;;;2.00;;
21681;SDS011;11002;48.256;10.084;2023-03-19T08:42:21;3.65;;;2.03;;
21681;SDS011;11002;48.256;10.084;2023-03-19T08:44:50;2.97;;;2.17;;
21681;SDS011;11002;48.256;10.084;2023-03-19T08:47:17;4.30;;;2.22;;
21681;SDS011;11002;48.256;10.084;2023-03-19T08:49:48;4.72;;;2.40;;
21681;SDS011;11002;48.256;10.084;2023-03-19T08:52:16;2.85;;;2.00;;
21681;SDS011;11002;48.256;10.084;2023-03-19T08:54:44;4.15;;;2.30;;
21681;SDS011;11002;48.256;10.084;2023-03-19T08:57:11;2.85;;;1.90;;
21681;SDS011;11002;48.256;10.084;2023-03-19T08:59:42;28.08;;;13.13;;
21681;SDS011;11002;48.256;10.084;2023-03-19T09:02:10;16.70;;;6.53;;
21681;SDS011;11002;48.256;10.084;2023-03-19T09:04:39;4.78;;;2.10;;
21681;SDS011;11002;48.256;10.084;2023-03-19T09:07:06;3.00;;;1.90;;
21681;SDS011;11002;48.256;10.084;2023-03-19T09:09:37;3.08;;;2.00;;
21681;SDS011;11002;48.256;10.084;2023-03-19T09:12:06;2.95;;;2.17;;
21681;SDS011;11002;48.256;10.084;2023-03-19T09:14:35;3.22;;;1.98;;
21681;SDS011;11002;48.256;10.084;2023-03-19T09:17:03;2.35;;;2.00;;
21681;SDS011;11002;48.256;10.084;2023-03-19T09:19:32;3.97;;;1.90;;
21681;SDS011;11002;48.256;10.084;2023-03-19T09:22:00;2.40;;;1.60;;
21681;SDS011;11002;48.256;10.084;2023-03-19T09:24:27;4.60;;;2.05;;
21681;SDS011;11002;48.256;10.084;2023-03-19T09:26:55;3.03;;;1.77;;
21681;SDS011;11002;48.256;10.084;2023-03-19T09:29:22;1.50;;;1.40;;
21681;SDS011;11002;48.256;10.084;2023-03-19T09:31:50;3.40;;;1.80;;
21681;SDS011;11002;48.256;10.084;2023-03-19T09:34:17;2.42;;;1.75;;
21681;SDS011;11002;48.256;10.084;2023-03-19T09:36:46;4.35;;;1.63;;
21681;SDS011;11002;48.256;10.084;2023-03-19T09:39:16;2.92;;;1.98;;
21681;SDS011;11002;48.256;10.084;2023-03-19T09:41:48;2.33;;;1.60;;
21681;SDS011;11002;48.256;10.084;2023-03-19T09:44:26;3.65;;;1.60;;
21681;SDS011;11002;48.256;10.084;2023-03-19T09:46:56;2.95;;;1.67;;
21681;SDS011;11002;48.256;10.084;2023-03-19T09:49:31;3.63;;;1.50;;
21681;SDS011;11002;48.256;10.084;2023-03-19T09:52:07;2.20;;;1.73;;
21681;SDS011;11002;48.256;10.084;2023-03-19T09:54:44;2.67;;;1.55;;
21681;SDS011;11002;48.256;10.084;2023-03-19T09:57:14;3.03;;;1.75;;
21681;SDS011;11002;48.256;10.084;2023-03-19T09:59:42;3.55;;;1.45;;
21681;SDS011;11002;48.256;10.084;2023-03-19T10:02:18;3.78;;;1.38;;
21681;SDS011;11002;48.256;10.084;2023-03-19T10:05:12;1.60;;;1.50;;
21681;SDS011;11002;48.256;10.084;2023-03-19T10:07:54;7.20;;;1.10;;
21681;SDS011;11002;48.256;10.084;2023-03-19T10:10:35;2.05;;;1.10;;
21681;SDS011;11002;48.256;10.084;2023-03-19T10:13:12;3.17;;;1.20;;
21681;SDS011;11002;48.256;10.084;2023-03-19T10:15:45;1.83;;;0.85;;
21681;SDS011;11002;48.256;10.084;2023-03-19T10:18:16;4.68;;;1.38;;
21681;SDS011;11002;48.256;10.084;2023-03-19T10:20:46;2.28;;;1.33;;
21681;SDS011;11002;48.256;10.084;2023-03-19T10:23:29;1.80;;;1.00;;
21681;SDS011;11002;48.256;10.084;2023-03-19T10:26:03;3.00;;;1.10;;
21681;SDS011;11002;48.256;10.084;2023-03-19T10:28:34;2.47;;;1.17;;
21681;SDS011;11002;48.256;10.084;2023-03-19T10:31:06;3.03;;;1.50;;
21681;SDS011;11002;48.256;10.084;2023-03-19T10:33:42;2.17;;;1.10;;
21681;SDS011;11002;48.256;10.084;2023-03-19T10:36:11;2.28;;;1.08;;
21681;SDS011;11002;48.256;10.084;2023-03-19T10:38:41;3.25;;;1.35;;
21681;SDS011;11002;48.256;10.084;2023-03-19T10:41:20;3.67;;;1.30;;
21681;SDS011;11002;48.256;10.084;2023-03-19T10:43:55;1.95;;;1.20;;
21681;SDS011;11002;48.256;10.084;2023-03-19T10:46:26;3.03;;;1.48;;
21681;SDS011;11002;48.256;10.084;2023-03-19T10:49:02;8.65;;;2.00;;
21681;SDS011;11002;48.256;10.084;2023-03-19T10:51:29;3.88;;;1.48;;
21681;SDS011;11002;48.256;10.084;2023-03-19T10:53:59;2.72;;;1.75;;
21681;SDS011;11002;48.256;10.084;2023-03-19T10:56:28;2.95;;;1.10;;
21681;SDS011;11002;48.256;10.084;2023-03-19T10:59:00;2.88;;;1.65;;
21681;SDS011;11002;48.256;10.084;2023-03-19T11:01:31;4.00;;;1.60;;
21681;SDS011;11002;48.256;10.084;2023-03-19T11:04:00;5.70;;;1.40;;
21681;SDS011;11002;48.256;10.084;2023-03-19T11:06:30;3.83;;;1.35;;
21681;SDS011;11002;48.256;10.084;2023-03-19T11:09:02;2.55;;;1.90;;
21681;SDS011;11002;48.256;10.084;2023-03-19T11:11:41;2.45;;;1.02;;
21681;SDS011;11002;48.256;10.084;2023-03-19T11:14:13;3.55;;;1.40;;
21681;SDS011;11002;48.256;10.084;2023-03-19T11:16:46;2.88;;;1.30;;
21681;SDS011;11002;48.256;10.084;2023-03-19T11:19:16;1.83;;;1.05;;
21681;SDS011;11002;48.256;10.084;2023-03-19T11:21:52;2.50;;;1.25;;
21681;SDS011;11002;48.256;10.084;2023-03-19T11:24:27;3.88;;;1.20;;
21681;SDS011;11002;48.256;10.084;2023-03-19T11:26:58;3.80;;;1.17;;
21681;SDS011;11002;48.256;10.084;2023-03-19T11:29:27;3.40;;;1.38;;
21681;SDS011;11002;48.256;10.084;2023-03-19T11:31:58;2.55;;;1.33;;
21681;SDS011;11002;48.256;10.084;2023-03-19T11:34:38;2.17;;;1.45;;
21681;SDS011;11002;48.256;10.084;2023-03-19T11:37:13;3.13;;;1.20;;
21681;SDS011;11002;48.256;10.084;2023-03-19T11:39:50;4.65;;;1.20;;
21681;SDS011;11002;48.256;10.084;2023-03-19T11:45:12;2.72;;;1.05;;
21681;SDS011;11002;48.256;10.084;2023-03-19T11:47:50;2.65;;;1.10;;
21681;SDS011;11002;48.256;10.084;2023-03-19T11:50:25;3.00;;;1.27;;
21681;SDS011;11002;48.256;10.084;2023-03-19T11:53:02;2.38;;;1.13;;
21681;SDS011;11002;48.256;10.084;2023-03-19T11:55:42;2.88;;;1.50;;
21681;SDS011;11002;48.256;10.084;2023-03-19T11:58:25;2.65;;;1.27;;
21681;SDS011;11002;48.256;10.084;2023-03-19T12:01:08;3.63;;;1.10;;
21681;SDS011;11002;48.256;10.084;2023-03-19T12:03:54;3.90;;;1.30;;
21681;SDS011;11002;48.256;10.084;2023-03-19T12:06:44;1.55;;;1.00;;
21681;SDS011;11002;48.256;10.084;2023-03-19T12:09:21;1.88;;;1.10;;
21681;SDS011;11002;48.256;10.084;2023-03-19T12:11:58;1.42;;;1.10;;
21681;SDS011;11002;48.256;10.084;2023-03-19T12:14:39;3.05;;;1.30;;
21681;SDS011;11002;48.256;10.084;2023-03-19T12:17:18;2.25;;;1.20;;
21681;SDS011;11002;48.256;10.084;2023-03-19T12:22:56;4.72;;;1.40;;
21681;SDS011;11002;48.256;10.084;2023-03-19T12:25:50;2.17;;;1.50;;
21681;SDS011;11002;48.256;10.084;2023-03-19T12:28:32;1.80;;;1.27;;
21681;SDS011;11002;48.256;10.084;2023-03-19T12:34:11;2.10;;;1.17;;
21681;SDS011;11002;48.256;10.084;2023-03-19T12:36:49;5.40;;;1.42;;
21681;SDS011;11002;48.256;10.084;2023-03-19T12:39:21;1.63;;;1.20;;
21681;SDS011;11002;48.256;10.084;2023-03-19T12:41:52;2.22;;;1.40;;
21681;SDS011;11002;48.256;10.084;2023-03-19T12:44:24;3.28;;;1.40;;
21681;SDS011;11002;48.256;10.084;2023-03-19T12:46:56;3.65;;;1.40;;
21681;SDS011;11002;48.256;10.084;2023-03-19T12:49:29;2.10;;;1.10;;
21681;SDS011;11002;48.256;10.084;2023-03-19T12:52:02;2.25;;;1.25;;
21681;SDS011;11002;48.256;10.084;2023-03-19T12:54:39;3.60;;;1.27;;
21681;SDS011;11002;48.256;10.084;2023-03-19T12:57:11;6.40;;;1.85;;
21681;SDS011;11002;48.256;10.084;2023-03-19T13:02:17;4.53;;;1.40;;
21681;SDS011;11002;48.256;10.084;2023-03-19T13:04:50;2.15;;;1.40;;
21681;SDS011;11002;48.256;10.084;2023-03-19T13:07:23;2.88;;;1.65;;
21681;SDS011;11002;48.256;10.084;2023-03-19T13:09:59;8.27;;;2.00;;
21681;SDS011;11002;48.256;10.084;2023-03-19T13:12:31;6.95;;;1.75;;
21681;SDS011;11002;48.256;10.084;2023-03-19T13:15:04;3.72;;;1.77;;
21681;SDS011;11002;48.256;10.084;2023-03-19T13:17:36;2.72;;;1.70;;
21681;SDS011;11002;48.256;10.084;2023-03-19T13:20:16;6.43;;;2.17;;
21681;SDS011;11002;48.256;10.084;2023-03-19T13:22:48;2.80;;;2.03;;
21681;SDS011;11002;48.256;10.084;2023-03-19T13:25:20;2.05;;;1.60;;
21681;SDS011;11002;48.256;10.084;2023-03-19T13:27:51;7.13;;;1.80;;
21681;SDS011;11002;48.256;10.084;2023-03-19T13:30:21;4.35;;;1.73;;
21681;SDS011;11002;48.256;10.084;2023-03-19T13:32:51;3.35;;;2.00;;
21681;SDS011;11002;48.256;10.084;2023-03-19T13:35:37;2.25;;;1.45;;
21681;SDS011;11002;48.256;10.084;2023-03-19T13:38:11;4.75;;;1.85;;
21681;SDS011;11002;48.256;10.084;2023-03-19T13:40:45;4.55;;;1.65;;
21681;SDS011;11002;48.256;10.084;2023-03-19T13:43:20;3.97;;;1.63;;
21681;SDS011;11002;48.256;10.084;2023-03-19T13:51:54;2.70;;;1.50;;
21681;SDS011;11002;48.256;10.084;2023-03-19T13:54:31;4.72;;;1.60;;
21681;SDS011;11002;48.256;10.084;2023-03-19T13:57:17;3.92;;;1.77;;
21681;SDS011;11002;48.256;10.084;2023-03-19T14:03:02;3.20;;;1.90;;
21681;SDS011;11002;48.256;10.084;2023-03-19T14:05:32;2.95;;;1.60;;
21681;SDS011;11002;48.256;10.084;2023-03-19T14:08:06;4.25;;;1.85;;
21681;SDS011;11002;48.256;10.084;2023-03-19T14:10:45;3.70;;;1.70;;
21681;SDS011;11002;48.256;10.084;2023-03-19T14:13:17;8.10;;;2.10;;
21681;SDS011;11002;48.256;10.084;2023-03-19T14:15:49;2.25;;;1.75;;
21681;SDS011;11002;48.256;10.084;2023-03-19T14:18:19;4.63;;;2.20;;
21681;SDS011;11002;48.256;10.084;2023-03-19T14:20:49;7.07;;;2.10;;
21681;SDS011;11002;48.256;10.084;2023-03-19T14:23:24;2.67;;;1.60;;
21681;SDS011;11002;48.256;10.084;2023-03-19T14:26:02;5.10;;;1.88;;
21681;SDS011;11002;48.256;10.084;2023-03-19T14:28:37;1.90;;;1.67;;
21681;SDS011;11002;48.256;10.084;2023-03-19T14:31:21;4.13;;;1.90;;
21681;SDS011;11002;48.256;10.084;2023-03-19T14:34:00;4.07;;;1.70;;
21681;SDS011;11002;48.256;10.084;2023-03-19T14:36:30;9.15;;;1.95;;
21681;SDS011;11002;48.256;10.084;2023-03-19T14:38:58;2.22;;;1.70;;
21681;SDS011;11002;48.256;10.084;2023-03-19T14:41:28;2.53;;;1.80;;
21681;SDS011;11002;48.256;10.084;2023-03-19T14:44:15;3.33;;;2.00;;
21681;SDS011;11002;48.256;10.084;2023-03-19T14:50:18;7.05;;;1.60;;
21681;SDS011;11002;48.256;10.084;2023-03-19T14:52:57;2.65;;;1.85;;
21681;SDS011;11002;48.256;10.084;2023-03-19T14:55:32;3.72;;;1.58;;
21681;SDS011;11002;48.256;10.084;2023-03-19T14:58:02;4.45;;;1.80;;
21681;SDS011;11002;48.256;10.084;2023-03-19T15:00:36;3.35;;;1.42;;
21681;SDS011;11002;48.256;10.084;2023-03-19T15:03:17;3.05;;;1.60;;
21681;SDS011;11002;48.256;10.084;2023-03-19T15:05:48;3.35;;;1.80;;
21681;SDS011;11002;48.256;10.084;2023-03-19T15:08:21;2.67;;;2.03;;
21681;SDS011;11002;48.256;10.084;2023-03-19T15:10:55;5.00;;;1.70;;
21681;SDS011;11002;48.256;10.084;2023-03-19T15:13:34;3.17;;;1.83;;
21681;SDS011;11002;48.256;10.084;2023-03-19T15:16:16;2.47;;;1.55;;
21681;SDS011;11002;48.256;10.084;2023-03-19T15:18:52;3.03;;;1.70;;
21681;SDS011;11002;48.256;10.084;2023-03-19T15:21:21;3.42;;;1.52;;
21681;SDS011;11002;48.256;10.084;2023-03-19T15:23:48;2.60;;;1.73;;
21681;SDS011;11002;48.256;10.084;2023-03-19T15:26:27;4.53;;;1.92;;
21681;SDS011;11002;48.256;10.084;2023-03-19T15:28:55;4.43;;;1.92;;
21681;SDS011;11002;48.256;10.084;2023-03-19T15:31:23;3.15;;;1.67;;